Time;durP1;ratioP1;P1;durP2;ratioP2;P2;SDS_P1;SDS_P2;PMS_P1;PMS_P2;Temp;Humidity;BMP_temperature;BMP_pressure;BME280_temperature;BME280_humidity;BME280_pressure;Samples;Min_cycle;Max_cycle;Signal;HPM_P1;HPM_P2
2023/11/05 00:02:25;;;;;;;6.50;3.80;;;;;;;3.14;85.94;94229.87;108573;1275;24264;-72
2023/11/05 00:04:56;;;;;;;6.70;4.30;;;;;;;3.16;85.95;94235.27;108629;1267;22521;-72
2023/11/05 00:07:27;;;;;;;6.00;4.10;;;;;;;3.16;85.85;94235.23;108664;1267;24163;-72
2023/11/05 00:09:58;;;;;;;8.80;5.70;;;;;;;3.13;85.64;94241.09;108611;1267;22528;-72
2023/11/05 00:12:29;;;;;;;14.60;8.00;;;;;;;3.05;85.31;94244.30;108654;1273;23358;-72
2023/11/05 00:15:00;;;;;;;8.40;4.40;;;;;;;2.84;84.73;94245.71;108676;1273;22522;-72
2023/11/05 00:17:31;;;;;;;9.40;4.90;;;;;;;2.65;84.88;94248.32;108616;1267;22535;-72
2023/11/05 00:20:06;;;;;;;7.40;4.30;;;;;;;2.67;85.68;94250.96;108617;1274;22520;-73
2023/11/05 00:22:38;;;;;;;5.80;3.40;;;;;;;2.75;86.00;94243.78;108608;1267;22649;-72
2023/11/05 00:25:10;;;;;;;6.60;4.10;;;;;;;2.85;86.31;94243.98;108627;1275;22535;-72
2023/11/05 00:27:41;;;;;;;6.10;3.50;;;;;;;2.90;86.32;94249.38;108653;1272;22531;-73
2023/11/05 00:30:13;;;;;;;5.90;3.80;;;;;;;2.94;86.21;94238.16;108618;1274;22596;-72
2023/11/05 00:32:44;;;;;;;6.10;3.60;;;;;;;2.97;86.18;94246.41;108664;1267;22514;-72
2023/11/05 00:35:18;;;;;;;6.30;3.00;;;;;;;2.97;86.14;94242.41;108657;1273;22555;-72
2023/11/05 00:37:50;;;;;;;6.80;3.90;;;;;;;3.03;86.29;94243.52;108660;1267;22539;-72
2023/11/05 00:40:21;;;;;;;5.30;3.30;;;;;;;3.05;86.14;94237.77;108603;1267;22531;-72
2023/11/05 00:42:52;;;;;;;5.90;3.00;;;;;;;2.98;85.92;94234.66;108532;1275;22535;-72
2023/11/05 00:45:23;;;;;;;4.80;3.80;;;;;;;2.96;86.28;94236.94;108589;1275;22535;-72
2023/11/05 00:47:54;;;;;;;7.60;3.10;;;;;;;3.00;86.32;94238.61;108537;1275;22531;-73
2023/11/05 00:50:25;;;;;;;4.80;3.20;;;;;;;3.05;86.42;94243.48;108535;1269;22520;-73
2023/11/05 00:52:56;;;;;;;5.80;3.40;;;;;;;3.06;86.11;94243.52;108628;1274;22553;-73
2023/11/05 00:55:27;;;;;;;6.30;4.00;;;;;;;3.09;86.18;94243.72;108658;1267;24377;-72
2023/11/05 00:57:58;;;;;;;5.50;3.20;;;;;;;3.25;86.14;94241.88;108652;1266;22600;-72
2023/11/05 01:00:29;;;;;;;5.70;2.40;;;;;;;3.23;85.93;94238.45;108600;1268;22936;-72
2023/11/05 01:03:00;;;;;;;3.80;2.30;;;;;;;3.37;86.45;94243.11;108644;1270;22531;-72
2023/11/05 01:05:31;;;;;;;5.10;2.20;;;;;;;3.61;86.49;94245.54;108651;1273;22540;-72
2023/11/05 01:08:02;;;;;;;4.50;1.90;;;;;;;3.74;86.09;94245.48;108627;1267;24920;-72
2023/11/05 01:10:33;;;;;;;3.30;2.20;;;;;;;3.73;85.39;94242.16;108626;1274;23296;-72
2023/11/05 01:13:04;;;;;;;4.30;2.30;;;;;;;3.58;85.28;94237.21;108613;1273;22538;-72
2023/11/05 01:15:34;;;;;;;5.50;2.10;;;;;;;3.57;85.34;94232.89;108624;1274;22529;-72
2023/11/05 01:18:05;;;;;;;3.10;1.70;;;;;;;3.63;85.46;94233.81;108648;1267;23275;-72
2023/11/05 01:20:36;;;;;;;4.10;2.30;;;;;;;3.69;85.31;94225.34;108603;1266;22549;-72
2023/11/05 01:23:07;;;;;;;3.60;2.30;;;;;;;3.70;85.27;94212.31;108631;1274;24433;-72
2023/11/05 01:25:38;;;;;;;4.20;2.70;;;;;;;3.70;85.10;94206.98;108647;1274;22520;-72
2023/11/05 01:28:09;;;;;;;3.70;2.40;;;;;;;3.63;84.92;94204.42;108615;1274;22524;-73
2023/11/05 01:30:40;;;;;;;4.70;2.70;;;;;;;3.57;85.04;94196.59;108617;1275;22545;-72
2023/11/05 01:33:11;;;;;;;4.00;2.20;;;;;;;3.56;85.13;94188.63;108570;1274;23773;-72
2023/11/05 01:35:42;;;;;;;3.90;2.00;;;;;;;3.57;84.99;94181.86;108641;1273;22530;-72
2023/11/05 01:38:13;;;;;;;4.40;1.70;;;;;;;3.67;85.59;94175.26;108649;1269;22562;-73
2023/11/05 01:40:44;;;;;;;3.50;1.60;;;;;;;4.17;86.26;94163.31;108612;1269;24173;-72
2023/11/05 01:43:14;;;;;;;5.30;1.60;;;;;;;4.58;86.11;94154.52;108582;1268;22537;-72
2023/11/05 01:45:45;;;;;;;2.40;1.10;;;;;;;4.92;85.82;94140.55;108557;1275;24226;-72
2023/11/05 01:48:16;;;;;;;2.60;1.40;;;;;;;5.20;85.09;94138.70;108544;1273;22547;-72
2023/11/05 01:50:48;;;;;;;3.10;1.30;;;;;;;5.27;84.60;94141.70;108615;1274;23967;-72
2023/11/05 01:53:19;;;;;;;3.80;1.30;;;;;;;5.37;84.45;94135.70;108605;1275;22520;-72
2023/11/05 01:55:51;;;;;;;3.80;1.40;;;;;;;5.57;84.34;94128.35;108673;1274;22534;-72
2023/11/05 01:58:22;;;;;;;3.70;1.40;;;;;;;5.65;83.99;94122.63;108618;1275;25422;-72
2023/11/05 02:00:56;;;;;;;5.10;2.30;;;;;;;5.74;83.86;94116.27;108598;1274;22548;-72
2023/11/05 02:03:27;;;;;;;3.60;1.40;;;;;;;5.92;84.02;94104.90;108640;1274;22558;-72
2023/11/05 02:05:59;;;;;;;2.00;0.90;;;;;;;6.09;83.84;94103.67;108639;1274;22576;-72
2023/11/05 02:08:30;;;;;;;1.60;1.00;;;;;;;6.22;83.33;94103.10;108599;1274;25522;-72
2023/11/05 02:11:01;;;;;;;4.90;1.50;;;;;;;6.48;82.89;94105.69;108602;1274;22511;-72
2023/11/05 02:13:45;;;;;;;2.70;0.90;;;;;;;6.67;82.17;94097.63;108617;1275;22528;-72
2023/11/05 02:16:17;;;;;;;2.60;1.00;;;;;;;6.84;81.56;94095.27;108682;1274;22593;-73
2023/11/05 02:18:47;;;;;;;2.50;1.20;;;;;;;6.95;81.20;94079.09;108645;1268;22534;-72
2023/11/05 02:21:26;;;;;;;1.90;0.80;;;;;;;6.99;80.81;94070.82;108632;1269;22531;-73
2023/11/05 02:23:57;;;;;;;1.50;0.70;;;;;;;7.00;80.35;94072.05;108607;1274;22523;-72
2023/11/05 02:26:30;;;;;;;2.60;1.30;;;;;;;7.02;80.16;94083.48;108591;1275;22514;-73
2023/11/05 02:29:01;;;;;;;3.10;1.30;;;;;;;6.99;79.97;94099.70;108605;1268;22524;-73
2023/11/05 02:31:32;;;;;;;2.60;1.60;;;;;;;6.99;79.60;94110.45;108562;1267;22524;-73
2023/11/05 02:34:03;;;;;;;2.30;1.20;;;;;;;6.96;79.56;94118.25;108633;1274;22522;-72
2023/11/05 02:36:36;;;;;;;3.50;1.70;;;;;;;6.93;79.59;94119.41;108638;1274;22543;-72
2023/11/05 02:39:07;;;;;;;3.40;1.50;;;;;;;6.91;79.68;94119.17;108600;1270;22626;-73
2023/11/05 02:41:38;;;;;;;2.30;1.50;;;;;;;6.90;79.67;94129.24;108598;1274;22611;-72
2023/11/05 02:44:09;;;;;;;3.80;1.70;;;;;;;6.92;79.76;94128.41;108611;1275;22564;-72
2023/11/05 02:46:40;;;;;;;4.00;1.90;;;;;;;6.95;79.88;94117.45;108594;1254;22527;-72
2023/11/05 02:49:12;;;;;;;7.00;2.40;;;;;;;7.01;80.00;94117.56;108597;1275;22693;-73
2023/11/05 02:51:43;;;;;;;2.50;1.30;;;;;;;7.06;80.14;94130.48;108559;1274;22548;-72
2023/11/05 02:54:14;;;;;;;4.20;2.10;;;;;;;7.12;80.06;94134.85;108628;1274;22521;-73
2023/11/05 02:56:45;;;;;;;1.90;1.20;;;;;;;7.18;80.00;94142.27;108612;1273;22527;-72
2023/11/05 02:59:21;;;;;;;3.00;1.40;;;;;;;7.21;79.97;94157.77;108603;1268;23847;-72
2023/11/05 03:01:52;;;;;;;2.60;1.40;;;;;;;7.30;80.02;94155.89;108620;1274;22534;-72
2023/11/05 03:04:23;;;;;;;4.10;1.40;;;;;;;7.35;79.86;94157.73;108607;1275;22610;-72
2023/11/05 03:06:54;;;;;;;4.70;1.90;;;;;;;7.37;79.82;94146.30;108650;1274;22599;-72
2023/11/05 03:09:25;;;;;;;2.40;0.90;;;;;;;7.40;79.76;94139.03;108642;1274;22517;-72
2023/11/05 03:11:56;;;;;;;2.40;1.30;;;;;;;7.42;79.68;94133.81;108571;1274;25434;-72
2023/11/05 03:14:27;;;;;;;2.40;1.30;;;;;;;7.43;79.67;94128.23;108553;1268;22537;-72
2023/11/05 03:16:58;;;;;;;4.40;1.90;;;;;;;7.42;79.75;94121.41;108575;1275;22533;-72
2023/11/05 03:19:28;;;;;;;3.20;1.40;;;;;;;7.41;79.79;94113.60;108622;1275;25317;-73
2023/11/05 03:21:59;;;;;;;3.00;1.50;;;;;;;7.40;79.86;94109.52;108593;1273;25345;-73
2023/11/05 03:24:30;;;;;;;2.20;1.20;;;;;;;7.41;79.87;94106.07;108663;1273;22543;-73
2023/11/05 03:27:01;;;;;;;3.30;1.60;;;;;;;7.41;79.75;94096.45;108646;1274;22524;-72
2023/11/05 03:29:32;;;;;;;1.60;1.30;;;;;;;7.42;79.88;94091.13;108642;1269;25253;-72
2023/11/05 03:32:03;;;;;;;3.30;1.40;;;;;;;7.41;79.86;94087.48;108632;1257;24254;-72
2023/11/05 03:34:34;;;;;;;3.40;1.00;;;;;;;7.43;80.05;94080.77;108652;1273;22524;-72
2023/11/05 03:37:05;;;;;;;4.20;1.40;;;;;;;7.46;80.02;94078.41;108608;1266;28230;-72
2023/11/05 03:39:37;;;;;;;2.50;1.50;;;;;;;7.53;79.96;94081.22;108642;1267;22556;-73
2023/11/05 03:42:08;;;;;;;2.30;1.60;;;;;;;7.56;79.89;94072.42;108619;1273;22533;-73
2023/11/05 03:44:39;;;;;;;3.70;1.90;;;;;;;7.58;79.86;94066.94;108654;1267;24713;-73
2023/11/05 03:47:11;;;;;;;1.80;1.40;;;;;;;7.60;79.70;94052.58;108657;1267;25490;-72
2023/11/05 03:49:44;;;;;;;3.00;1.60;;;;;;;7.65;79.76;94050.13;108597;1273;22536;-72
2023/11/05 03:52:15;;;;;;;2.80;1.30;;;;;;;7.76;79.24;94050.10;108534;1269;22516;-73
2023/11/05 03:54:46;;;;;;;2.60;1.20;;;;;;;7.84;78.49;94046.86;108556;1275;23625;-73
2023/11/05 03:57:17;;;;;;;3.10;1.20;;;;;;;7.98;77.52;94048.21;108609;1275;22521;-72
2023/11/05 03:59:48;;;;;;;2.10;1.30;;;;;;;8.14;76.37;94039.76;108552;1274;23218;-73
2023/11/05 04:02:18;;;;;;;3.70;0.70;;;;;;;8.25;75.93;94041.06;108629;1269;23240;-72
2023/11/05 04:04:51;;;;;;;1.70;0.90;;;;;;;8.31;75.37;94039.31;108606;1268;22547;-72
2023/11/05 04:07:22;;;;;;;1.90;1.00;;;;;;;8.41;74.19;94039.85;108579;1272;22587;-72
2023/11/05 04:09:53;;;;;;;3.30;1.30;;;;;;;8.45;74.21;94051.93;108655;1274;22545;-72
2023/11/05 04:12:24;;;;;;;1.90;1.00;;;;;;;8.43;73.58;94046.80;108656;1269;25518;-72
2023/11/05 04:14:55;;;;;;;1.30;0.80;;;;;;;8.43;73.44;94048.21;108638;1275;22519;-73
2023/11/05 04:17:26;;;;;;;0.90;0.80;;;;;;;8.43;73.11;94058.18;108663;1274;22728;-72
2023/11/05 04:19:57;;;;;;;2.30;1.20;;;;;;;8.50;72.90;94065.36;108641;1274;22523;-73
2023/11/05 04:22:28;;;;;;;1.60;1.10;;;;;;;8.55;73.17;94065.98;108566;1268;22557;-73
2023/11/05 04:24:59;;;;;;;2.20;1.10;;;;;;;8.55;73.06;94073.30;108640;1268;24196;-72
2023/11/05 04:27:30;;;;;;;3.50;1.10;;;;;;;8.56;73.11;94071.45;108642;1273;24526;-73
2023/11/05 04:30:00;;;;;;;3.20;0.70;;;;;;;8.57;73.06;94069.44;108609;1274;22517;-73
2023/11/05 04:32:31;;;;;;;1.80;1.20;;;;;;;8.61;72.85;94059.58;108556;1274;22662;-73
2023/11/05 04:35:02;;;;;;;1.80;1.00;;;;;;;8.64;72.77;94061.91;108632;1274;22524;-73
2023/11/05 04:37:33;;;;;;;2.50;1.10;;;;;;;8.64;72.63;94061.83;108608;1266;25411;-72
2023/11/05 04:40:06;;;;;;;2.80;1.80;;;;;;;8.66;72.77;94068.31;108603;1275;25353;-73
2023/11/05 04:42:37;;;;;;;1.80;1.20;;;;;;;8.58;72.93;94057.72;108628;1274;25376;-73
2023/11/05 04:45:10;;;;;;;2.00;1.00;;;;;;;8.47;73.01;94048.42;108660;1274;22533;-73
2023/11/05 04:47:40;;;;;;;2.10;1.30;;;;;;;8.38;73.26;94038.55;108656;1274;23043;-72
2023/11/05 04:50:12;;;;;;;2.20;1.10;;;;;;;8.33;73.51;94047.68;108600;1275;24726;-73
2023/11/05 04:52:43;;;;;;;3.20;1.00;;;;;;;8.30;73.71;94047.16;108647;1274;25250;-73
2023/11/05 04:55:14;;;;;;;3.10;1.20;;;;;;;8.32;73.75;94043.92;108656;1273;22524;-72
2023/11/05 04:57:45;;;;;;;3.10;0.90;;;;;;;8.29;73.78;94055.30;108620;1275;22524;-73
2023/11/05 05:00:17;;;;;;;2.20;0.90;;;;;;;8.33;73.83;94052.27;108670;1266;22542;-73
2023/11/05 05:02:50;;;;;;;1.50;0.70;;;;;;;8.55;73.82;94055.12;108652;1269;25108;-72
2023/11/05 05:05:23;;;;;;;1.50;1.00;;;;;;;8.70;73.54;94056.67;108630;1271;22520;-72
2023/11/05 05:07:54;;;;;;;1.60;0.90;;;;;;;8.73;73.41;94049.23;108669;1274;25345;-72
2023/11/05 05:10:25;;;;;;;0.60;0.50;;;;;;;8.81;73.41;94047.97;108594;1274;22952;-72
2023/11/05 05:12:56;;;;;;;1.70;1.10;;;;;;;8.90;73.20;94047.35;108621;1274;22588;-72
2023/11/05 05:15:27;;;;;;;1.60;1.00;;;;;;;8.86;73.09;94048.88;108670;1266;25268;-72
2023/11/05 05:17:58;;;;;;;2.30;1.10;;;;;;;8.78;72.99;94038.00;108607;1275;25386;-73
2023/11/05 05:20:29;;;;;;;2.40;1.20;;;;;;;8.73;73.08;94027.85;108605;1274;22517;-73
2023/11/05 05:23:00;;;;;;;2.40;1.20;;;;;;;8.67;73.15;94023.38;108620;1264;22520;-72
2023/11/05 05:25:31;;;;;;;2.80;1.40;;;;;;;8.63;73.31;94027.55;108640;1267;22511;-72
2023/11/05 05:28:01;;;;;;;1.70;1.10;;;;;;;8.62;73.38;94024.52;108664;1274;22529;-73
2023/11/05 05:30:32;;;;;;;2.90;1.20;;;;;;;8.59;73.39;94035.19;108631;1271;25416;-73
2023/11/05 05:33:03;;;;;;;4.00;1.30;;;;;;;8.58;73.30;94039.07;108608;1273;23029;-73
2023/11/05 05:35:34;;;;;;;1.80;1.00;;;;;;;8.57;73.30;94048.30;108647;1269;22523;-73
2023/11/05 05:38:05;;;;;;;1.60;0.90;;;;;;;8.57;73.39;94040.16;108606;1275;22523;-73
2023/11/05 05:40:36;;;;;;;2.60;1.20;;;;;;;8.58;73.40;94041.70;108630;1274;24915;-73
2023/11/05 05:43:07;;;;;;;1.90;0.90;;;;;;;8.55;73.39;94048.05;108659;1275;22862;-73
2023/11/05 05:45:38;;;;;;;1.50;0.80;;;;;;;8.57;73.38;94051.48;108608;1275;23814;-73
2023/11/05 05:48:09;;;;;;;2.50;0.90;;;;;;;8.58;73.21;94053.55;108650;1271;25279;-73
2023/11/05 05:50:40;;;;;;;1.90;1.30;;;;;;;8.58;73.32;94053.05;108631;1273;22562;-72
2023/11/05 05:53:11;;;;;;;2.10;1.40;;;;;;;8.57;73.28;94054.20;108622;1274;22570;-73
2023/11/05 05:55:43;;;;;;;2.40;1.00;;;;;;;8.56;73.21;94056.36;108678;1274;25275;-73
2023/11/05 05:58:16;;;;;;;2.40;0.90;;;;;;;8.57;73.24;94053.36;108616;1266;24230;-72
2023/11/05 06:00:47;;;;;;;2.90;1.60;;;;;;;8.56;73.19;94052.45;108603;1274;22817;-73
2023/11/05 06:03:18;;;;;;;2.50;1.50;;;;;;;8.54;73.26;94041.42;108635;1273;22633;-73
2023/11/05 06:05:49;;;;;;;2.30;1.40;;;;;;;8.52;73.40;94036.16;108635;1269;22528;-73
2023/11/05 06:08:22;;;;;;;4.40;1.30;;;;;;;8.51;73.34;94039.09;108621;1266;25313;-73
2023/11/05 06:10:53;;;;;;;1.80;1.30;;;;;;;8.51;73.44;94039.59;108609;1271;22504;-73
2023/11/05 06:13:25;;;;;;;2.50;1.40;;;;;;;8.50;73.46;94035.13;108688;1272;22531;-73
2023/11/05 06:15:56;;;;;;;2.00;1.20;;;;;;;8.50;73.58;94042.42;108607;1275;22521;-73
2023/11/05 06:18:29;;;;;;;1.10;0.70;;;;;;;8.56;73.52;94044.34;108612;1274;22569;-72
2023/11/05 06:21:01;;;;;;;2.20;1.10;;;;;;;8.71;73.44;94041.38;108602;1266;24260;-72
2023/11/05 06:23:32;;;;;;;1.90;0.90;;;;;;;8.86;73.34;94033.10;108613;1274;22605;-73
2023/11/05 06:26:04;;;;;;;2.80;1.40;;;;;;;8.93;73.08;94035.36;108581;1267;22643;-73
2023/11/05 06:28:35;;;;;;;2.20;1.10;;;;;;;8.96;72.99;94039.81;108640;1274;22525;-73
2023/11/05 06:31:06;;;;;;;2.00;0.90;;;;;;;8.90;72.86;94035.58;108568;1272;25651;-73
2023/11/05 06:33:37;;;;;;;2.60;1.20;;;;;;;8.83;72.85;94033.09;108576;1269;22531;-73
2023/11/05 06:36:10;;;;;;;3.60;1.20;;;;;;;8.77;72.83;94036.29;108615;1272;22524;-73
2023/11/05 06:38:41;;;;;;;1.10;0.90;;;;;;;8.68;72.77;94045.29;108659;1274;24260;-73
2023/11/05 06:41:12;;;;;;;1.70;0.90;;;;;;;8.65;72.80;94047.08;108586;1275;27831;-73
2023/11/05 06:43:43;;;;;;;2.10;1.00;;;;;;;8.66;72.72;94047.94;108633;1274;22527;-72
2023/11/05 06:46:14;;;;;;;2.10;1.00;;;;;;;8.62;72.84;94033.88;108616;1274;22529;-74
2023/11/05 06:48:45;;;;;;;2.70;1.00;;;;;;;8.58;72.80;94026.84;108618;1275;25264;-73
2023/11/05 06:51:16;;;;;;;1.60;0.80;;;;;;;8.54;72.98;94024.84;108588;1275;25059;-73
2023/11/05 06:53:47;;;;;;;1.50;1.00;;;;;;;8.54;72.93;94016.00;108575;1275;22586;-73
2023/11/05 06:56:18;;;;;;;1.70;1.20;;;;;;;8.53;73.00;94017.32;108613;1274;22524;-73
2023/11/05 06:58:49;;;;;;;2.10;1.00;;;;;;;8.52;73.00;94018.36;108603;1272;22526;-73
2023/11/05 07:01:20;;;;;;;1.60;0.90;;;;;;;8.51;73.04;94015.83;108566;1275;33944;-73
2023/11/05 07:03:51;;;;;;;2.50;1.20;;;;;;;8.50;73.21;94010.83;108644;1269;22543;-73
2023/11/05 07:06:22;;;;;;;1.70;1.10;;;;;;;8.51;73.24;94004.60;108601;1275;22522;-73
2023/11/05 07:08:53;;;;;;;1.30;0.90;;;;;;;8.50;73.46;94002.60;108642;1273;22524;-73
2023/11/05 07:11:24;;;;;;;3.20;1.20;;;;;;;8.47;73.53;94001.40;108596;1274;22529;-73
2023/11/05 07:13:55;;;;;;;2.30;1.10;;;;;;;8.47;73.54;93999.05;108622;1274;23824;-73
2023/11/05 07:16:26;;;;;;;2.50;1.20;;;;;;;8.48;73.78;93995.52;108597;1274;24271;-73
2023/11/05 07:18:57;;;;;;;1.70;1.10;;;;;;;8.48;73.97;94002.23;108650;1265;23132;-73
2023/11/05 07:21:28;;;;;;;2.20;1.00;;;;;;;8.46;74.12;94003.90;108622;1274;22536;-72
2023/11/05 07:23:59;;;;;;;1.20;1.00;;;;;;;8.43;74.14;94005.09;108632;1273;22526;-72
2023/11/05 07:26:30;;;;;;;1.20;0.80;;;;;;;8.44;74.41;94003.96;108626;1274;25360;-73
2023/11/05 07:29:01;;;;;;;2.50;1.40;;;;;;;8.44;74.44;93999.46;108595;1274;25357;-73
2023/11/05 07:31:32;;;;;;;1.70;1.20;;;;;;;8.45;74.63;93996.02;108573;1274;25262;-73
2023/11/05 07:34:03;;;;;;;2.10;0.80;;;;;;;8.44;74.95;93998.27;108614;1271;24193;-72
2023/11/05 07:36:36;;;;;;;1.40;1.00;;;;;;;8.38;75.32;93998.98;108633;1273;22735;-73
2023/11/05 07:39:09;;;;;;;3.00;1.10;;;;;;;8.30;75.84;94001.30;108608;1274;22546;-73
2023/11/05 07:41:40;;;;;;;1.50;1.00;;;;;;;8.26;76.42;94006.24;108625;1275;26388;-73
2023/11/05 07:44:14;;;;;;;2.40;1.00;;;;;;;8.25;76.88;94008.68;108640;1272;25290;-73
2023/11/05 07:46:45;;;;;;;2.50;1.20;;;;;;;8.20;77.56;94013.15;108659;1274;25233;-73
2023/11/05 07:49:16;;;;;;;2.70;1.40;;;;;;;8.13;78.37;94017.41;108620;1274;22511;-72
2023/11/05 07:51:47;;;;;;;3.20;1.10;;;;;;;8.05;79.03;94012.25;108542;1274;23741;-73
2023/11/05 07:54:18;;;;;;;2.20;1.40;;;;;;;7.99;79.20;94009.67;108620;1269;22527;-72
2023/11/05 07:56:53;;;;;;;1.50;0.90;;;;;;;7.92;79.63;94014.90;108616;1274;24315;-72
2023/11/05 07:59:24;;;;;;;1.80;1.50;;;;;;;7.88;80.24;94010.98;108637;1275;22527;-73
2023/11/05 08:01:56;;;;;;;2.00;1.40;;;;;;;7.86;80.80;94004.95;108607;1272;22534;-73
2023/11/05 08:04:30;;;;;;;3.70;1.40;;;;;;;7.83;81.34;94011.25;108600;1269;22556;-72
2023/11/05 08:07:01;;;;;;;2.70;1.30;;;;;;;7.80;81.76;94002.64;108615;1275;22731;-73
2023/11/05 08:09:32;;;;;;;1.70;1.30;;;;;;;7.77;82.44;94000.27;108607;1272;22526;-73
2023/11/05 08:12:04;;;;;;;2.50;1.50;;;;;;;7.76;82.89;93991.27;108536;1259;22520;-73
2023/11/05 08:14:35;;;;;;;1.30;1.00;;;;;;;7.74;83.54;93984.97;108535;1273;24248;-73
2023/11/05 08:17:07;;;;;;;1.40;1.10;;;;;;;7.76;83.98;93979.22;108564;1274;24471;-72
2023/11/05 08:19:38;;;;;;;2.20;1.30;;;;;;;7.78;84.30;93975.98;108571;1275;22535;-74
2023/11/05 08:22:10;;;;;;;3.00;1.60;;;;;;;7.80;84.65;93979.20;108576;1273;22540;-72
2023/11/05 08:24:41;;;;;;;4.30;1.80;;;;;;;7.79;84.80;93976.55;108666;1272;22557;-73
2023/11/05 08:27:14;;;;;;;4.60;2.00;;;;;;;7.80;85.11;93971.05;108608;1274;22536;-73
2023/11/05 08:29:45;;;;;;;4.20;2.10;;;;;;;7.79;85.42;93981.14;108588;1274;24422;-73
2023/11/05 08:32:20;;;;;;;2.80;1.70;;;;;;;7.80;85.85;93977.77;108591;1274;25351;-72
2023/11/05 08:34:53;;;;;;;4.20;2.30;;;;;;;7.72;86.04;93977.35;108652;1274;25381;-73
2023/11/05 08:37:24;;;;;;;3.20;2.10;;;;;;;7.64;86.30;93981.95;108666;1266;22528;-73
2023/11/05 08:39:55;;;;;;;3.60;2.30;;;;;;;7.58;86.60;93987.95;108592;1275;22943;-73
2023/11/05 08:42:26;;;;;;;4.00;2.20;;;;;;;7.56;87.05;93989.14;108576;1266;22634;-72
2023/11/05 08:44:57;;;;;;;3.80;2.60;;;;;;;7.58;87.64;93984.70;108598;1266;22583;-72
2023/11/05 08:47:28;;;;;;;4.20;2.90;;;;;;;7.61;87.95;93977.66;108616;1273;25256;-73
2023/11/05 08:49:59;;;;;;;3.20;2.40;;;;;;;7.62;88.16;93969.26;108572;1275;25395;-73
2023/11/05 08:52:31;;;;;;;4.60;2.50;;;;;;;7.62;88.54;93968.36;108588;1275;23310;-73
2023/11/05 08:55:05;;;;;;;5.50;3.20;;;;;;;7.61;88.81;93960.48;108698;1266;22540;-72
2023/11/05 08:57:37;;;;;;;3.50;2.60;;;;;;;7.62;89.23;93954.86;108596;1275;22535;-73
2023/11/05 09:00:13;;;;;;;5.00;2.20;;;;;;;7.65;89.48;93952.16;108597;1266;24242;-73
2023/11/05 09:02:44;;;;;;;3.30;2.20;;;;;;;7.68;89.91;93946.33;108665;1274;22527;-73
2023/11/05 09:05:16;;;;;;;3.80;1.50;;;;;;;7.71;90.27;93944.55;108653;1269;22521;-73
2023/11/05 09:07:47;;;;;;;2.70;1.50;;;;;;;7.76;90.49;93936.70;108692;1274;22549;-73
2023/11/05 09:10:18;;;;;;;3.20;1.80;;;;;;;7.81;90.76;93933.58;108587;1268;23732;-73
2023/11/05 09:12:50;;;;;;;3.10;1.70;;;;;;;7.89;90.94;93930.15;108667;1272;22607;-73
2023/11/05 09:15:22;;;;;;;3.30;1.40;;;;;;;7.96;91.19;93926.63;108608;1274;22521;-73
2023/11/05 09:17:53;;;;;;;16.40;10.30;;;;;;;8.04;91.48;93923.13;108641;1275;25495;-73
2023/11/05 09:20:24;;;;;;;6.60;4.00;;;;;;;8.11;91.73;93921.97;108537;1266;24278;-73
2023/11/05 09:22:55;;;;;;;5.20;3.20;;;;;;;8.15;91.79;93917.20;108614;1275;22527;-73
2023/11/05 09:25:28;;;;;;;5.10;3.80;;;;;;;8.19;91.93;93913.41;108614;1272;24924;-73
2023/11/05 09:28:00;;;;;;;5.30;3.80;;;;;;;8.14;91.61;93915.07;108638;1263;22587;-73
2023/11/05 09:30:31;;;;;;;10.70;5.60;;;;;;;8.08;91.91;93919.38;108631;1274;22573;-73
2023/11/05 09:33:02;;;;;;;7.50;5.20;;;;;;;8.06;92.16;93912.69;108575;1270;22520;-73
2023/11/05 09:35:33;;;;;;;8.00;5.00;;;;;;;8.08;92.26;93920.73;108654;1268;22522;-73
2023/11/05 09:38:04;;;;;;;8.10;5.00;;;;;;;8.06;92.45;93905.52;108649;1269;24272;-73
2023/11/05 09:40:35;;;;;;;5.20;3.90;;;;;;;8.07;92.80;93900.38;108626;1271;22547;-73
2023/11/05 09:43:10;;;;;;;7.10;5.40;;;;;;;8.10;93.02;93899.79;108618;1274;22508;-73
2023/11/05 09:45:43;;;;;;;6.20;4.80;;;;;;;8.13;93.16;93899.42;108610;1274;22521;-73
2023/11/05 09:48:14;;;;;;;4.70;3.50;;;;;;;8.14;93.24;93886.93;108668;1274;24196;-73
2023/11/05 09:50:45;;;;;;;6.20;3.80;;;;;;;8.18;93.32;93882.00;108597;1267;24295;-73
2023/11/05 09:53:17;;;;;;;16.60;7.90;;;;;;;8.20;93.41;93868.36;108604;1269;24282;-73
2023/11/05 09:55:49;;;;;;;33.60;20.00;;;;;;;8.24;93.68;93858.23;108604;1275;22525;-73
2023/11/05 09:58:20;;;;;;;36.40;19.70;;;;;;;8.30;94.02;93847.10;108616;1269;22531;-73
2023/11/05 10:00:51;;;;;;;11.60;5.90;;;;;;;8.34;94.12;93841.52;108581;1271;22531;-72
2023/11/05 10:03:25;;;;;;;6.80;3.40;;;;;;;8.37;94.02;93838.13;108620;1267;22544;-73
2023/11/05 10:05:56;;;;;;;3.00;2.00;;;;;;;8.38;94.05;93815.76;108623;1274;22511;-73
2023/11/05 10:08:29;;;;;;;5.50;3.80;;;;;;;8.39;94.12;93799.73;108597;1269;22534;-72
2023/11/05 10:11:01;;;;;;;5.50;3.60;;;;;;;8.42;94.18;93788.04;108589;1272;25334;-73
2023/11/05 10:13:32;;;;;;;3.90;3.00;;;;;;;8.46;94.37;93771.95;108633;1272;22529;-73
2023/11/05 10:16:06;;;;;;;3.30;2.30;;;;;;;8.48;94.28;93771.20;108646;1275;22551;-73
2023/11/05 10:18:38;;;;;;;3.20;2.10;;;;;;;8.46;94.09;93777.70;108642;1274;22696;-72
2023/11/05 10:21:10;;;;;;;2.40;1.70;;;;;;;8.42;93.71;93786.23;108624;1272;25292;-73
2023/11/05 10:23:54;;;;;;;2.90;2.00;;;;;;;8.40;93.66;93787.37;108624;1273;22547;-73
2023/11/05 10:26:33;;;;;;;2.10;1.50;;;;;;;8.39;93.85;93777.55;108620;1275;22524;-73
2023/11/05 10:29:07;;;;;;;2.50;1.50;;;;;;;8.39;93.88;93767.98;108648;1266;25400;-73
2023/11/05 10:31:39;;;;;;;1.20;1.00;;;;;;;8.41;94.18;93763.04;108568;1274;22518;-73
2023/11/05 10:34:11;;;;;;;1.50;0.90;;;;;;;8.39;94.06;93757.20;108666;1274;24392;-73
2023/11/05 10:36:42;;;;;;;1.50;1.10;;;;;;;8.34;93.86;93756.67;108602;1275;24228;-73
2023/11/05 10:39:14;;;;;;;1.50;1.00;;;;;;;8.27;93.42;93758.57;108617;1267;25364;-73
2023/11/05 10:41:48;;;;;;;2.00;1.00;;;;;;;8.24;93.60;93758.40;108592;1269;22845;-73
2023/11/05 10:44:23;;;;;;;2.60;1.20;;;;;;;8.23;93.41;93743.36;108616;1269;26586;-73
2023/11/05 10:46:57;;;;;;;1.40;0.90;;;;;;;8.24;93.46;93721.61;108631;1272;22543;-73
2023/11/05 10:49:29;;;;;;;0.80;0.60;;;;;;;8.25;93.45;93716.79;108586;1267;22938;-73
2023/11/05 10:52:00;;;;;;;0.80;0.70;;;;;;;8.24;93.27;93714.29;108583;1275;22524;-73
2023/11/05 10:54:31;;;;;;;0.90;0.60;;;;;;;8.26;93.20;93698.27;108623;1274;24193;-73
2023/11/05 10:57:22;;;;;;;0.80;0.60;;;;;;;8.29;93.53;93678.77;108625;1273;22962;-73
2023/11/05 10:59:53;;;;;;;1.80;1.00;;;;;;;8.33;93.62;93663.67;108630;1274;22599;-73
2023/11/05 11:02:24;;;;;;;1.00;0.70;;;;;;;8.36;93.52;93658.69;108660;1272;25249;-73
2023/11/05 11:04:56;;;;;;;1.90;0.70;;;;;;;8.38;93.53;93648.71;108644;1265;22547;-73
2023/11/05 11:07:28;;;;;;;0.70;0.50;;;;;;;8.37;93.59;93630.52;108630;1274;22568;-73
2023/11/05 11:10:00;;;;;;;1.00;0.60;;;;;;;8.37;93.65;93602.83;108592;1270;25659;-73
2023/11/05 11:12:35;;;;;;;2.60;0.90;;;;;;;8.40;93.85;93578.17;108602;1275;25419;-73
2023/11/05 11:15:09;;;;;;;2.10;1.30;;;;;;;8.42;94.00;93608.16;108558;1275;22519;-73
2023/11/05 11:17:42;;;;;;;1.60;1.20;;;;;;;8.43;94.09;93646.88;108586;1275;25217;-73
2023/11/05 11:20:16;;;;;;;2.60;1.30;;;;;;;8.42;93.86;93666.70;108567;1272;25287;-74
2023/11/05 11:22:48;;;;;;;2.00;1.20;;;;;;;8.45;93.71;93686.09;108582;1272;22520;-73
2023/11/05 11:25:20;;;;;;;2.90;1.90;;;;;;;8.45;93.27;93709.15;108608;1275;22681;-73
2023/11/05 11:27:52;;;;;;;9.70;5.90;;;;;;;8.34;92.99;93726.81;108636;1274;22524;-73
2023/11/05 11:30:24;;;;;;;3.50;2.50;;;;;;;8.21;93.51;93722.88;108591;1275;24690;-73
2023/11/05 11:32:56;;;;;;;4.80;3.60;;;;;;;8.14;93.53;93706.08;108654;1275;22535;-73
2023/11/05 11:35:28;;;;;;;2.60;1.90;;;;;;;8.12;94.14;93703.91;108613;1275;22524;-72
2023/11/05 11:38:04;;;;;;;8.50;3.80;;;;;;;8.10;93.96;93710.17;108611;1275;26689;-73
2023/11/05 11:40:35;;;;;;;12.80;9.70;;;;;;;8.09;94.20;93713.17;108528;1275;23332;-73
2023/11/05 11:43:08;;;;;;;49.20;40.40;;;;;;;8.05;94.41;93712.40;108419;1274;199922;-73
2023/11/05 11:45:41;;;;;;;11.00;7.90;;;;;;;8.03;94.63;93707.22;108585;1275;22562;-73
2023/11/05 11:48:12;;;;;;;8.30;6.30;;;;;;;8.03;94.82;93704.57;108597;1275;22553;-73
2023/11/05 11:50:53;;;;;;;5.40;4.40;;;;;;;8.07;94.74;93707.38;108549;1275;24512;-73
2023/11/05 11:53:31;;;;;;;2.70;1.90;;;;;;;8.14;94.60;93727.33;108647;1275;22569;-74
2023/11/05 11:56:03;;;;;;;3.00;2.50;;;;;;;8.19;94.37;93720.55;108711;1275;22609;-73